Time;durP1;ratioP1;P1;durP2;ratioP2;P2;SDS_P1;SDS_P2;PMS_P1;PMS_P2;Temp;Humidity;BMP_temperature;BMP_pressure;BME280_temperature;BME280_humidity;BME280_pressure;Samples;Min_cycle;Max_cycle;Signal;HPM_P1;HPM_P2
2023/05/28 00:02:03;;;;;;;18.58;7.93;;;17.00;99.90;;;;;;5072020;28;20032;-76
2023/05/28 00:04:28;;;;;;;17.67;8.55;;;16.90;99.90;;;;;;5070619;28;20017;-76
2023/05/28 00:06:55;;;;;;;13.52;7.43;;;16.90;99.90;;;;;;5070806;28;20052;-76
2023/05/28 00:09:21;;;;;;;14.32;7.00;;;16.90;99.90;;;;;;5071846;28;20541;-76
2023/05/28 00:11:47;;;;;;;16.48;8.00;;;16.80;99.90;;;;;;5071943;28;20366;-76
2023/05/28 00:14:13;;;;;;;15.90;7.28;;;16.80;99.90;;;;;;5062068;28;20128;-75
2023/05/28 00:16:40;;;;;;;16.50;6.90;;;16.80;99.90;;;;;;5051946;28;20024;-76
2023/05/28 00:19:06;;;;;;;16.48;7.35;;;16.70;99.90;;;;;;5050750;28;20505;-76
2023/05/28 00:21:33;;;;;;;21.55;8.52;;;16.70;99.90;;;;;;5058536;28;20061;-76
2023/05/28 00:23:59;;;;;;;18.50;7.78;;;16.60;99.90;;;;;;5071184;28;20021;-76
2023/05/28 00:26:26;;;;;;;17.23;8.20;;;16.60;99.90;;;;;;5069618;28;20028;-76
2023/05/28 00:28:53;;;;;;;13.30;7.78;;;16.60;99.90;;;;;;5070529;28;20186;-76
2023/05/28 00:31:18;;;;;;;16.98;8.93;;;16.60;99.90;;;;;;5072904;28;20043;-75
2023/05/28 00:33:44;;;;;;;14.68;7.35;;;16.40;99.90;;;;;;5074990;28;20480;-76
2023/05/28 00:36:12;;;;;;;20.45;7.22;;;16.50;99.90;;;;;;5057934;28;20032;-75
2023/05/28 00:38:37;;;;;;;13.75;7.75;;;16.40;99.90;;;;;;5069477;28;20017;-78
2023/05/28 00:41:03;;;;;;;15.75;7.97;;;16.30;99.90;;;;;;5055474;28;20454;-76
2023/05/28 00:43:29;;;;;;;16.00;7.50;;;16.30;99.90;;;;;;5055665;28;20028;-75
2023/05/28 00:45:59;;;;;;;12.77;7.20;;;16.30;99.90;;;;;;5053984;28;20420;-78
2023/05/28 00:48:25;;;;;;;17.20;8.50;;;16.30;99.90;;;;;;5055536;28;20029;-78
2023/05/28 00:50:51;;;;;;;15.05;8.57;;;16.20;99.90;;;;;;5055559;28;20028;-77
2023/05/28 00:53:17;;;;;;;20.20;8.43;;;16.20;99.90;;;;;;5054933;28;20406;-77
2023/05/28 00:55:44;;;;;;;15.32;8.65;;;16.20;99.90;;;;;;5055270;28;20106;-78
2023/05/28 00:58:10;;;;;;;15.43;8.52;;;16.10;99.90;;;;;;5054475;28;20059;-77
2023/05/28 01:00:37;;;;;;;14.43;8.10;;;16.10;99.90;;;;;;5054874;28;20056;-77
2023/05/28 01:03:04;;;;;;;19.95;9.02;;;16.10;99.90;;;;;;5055073;28;20040;-77
2023/05/28 01:05:34;;;;;;;16.33;7.90;;;16.10;99.90;;;;;;5066721;28;20098;-77
2023/05/28 01:08:03;;;;;;;16.63;8.85;;;16.00;99.90;;;;;;5075373;28;20024;-77
2023/05/28 01:10:30;;;;;;;16.90;9.55;;;15.90;99.90;;;;;;5074929;28;20381;-77
2023/05/28 01:12:58;;;;;;;13.55;7.47;;;15.90;99.90;;;;;;5075263;28;20040;-77
2023/05/28 01:15:25;;;;;;;15.30;8.90;;;15.90;99.90;;;;;;5055507;28;20120;-76
2023/05/28 01:17:59;;;;;;;12.20;7.88;;;15.80;99.90;;;;;;5055161;28;20028;-77
2023/05/28 01:20:29;;;;;;;16.15;8.73;;;15.80;99.90;;;;;;5054569;28;20049;-76
2023/05/28 01:23:06;;;;;;;15.27;8.38;;;15.80;99.90;;;;;;5055117;28;20111;-77
2023/05/28 01:25:33;;;;;;;19.98;9.10;;;15.70;99.90;;;;;;5036661;28;20028;-77
2023/05/28 01:28:02;;;;;;;15.25;9.25;;;15.70;99.90;;;;;;5063543;28;20115;-76
2023/05/28 01:30:28;;;;;;;18.02;8.52;;;15.70;99.90;;;;;;5093277;28;20059;-77
2023/05/28 01:32:54;;;;;;;17.90;9.00;;;15.70;99.90;;;;;;5094617;28;20063;-77
2023/05/28 01:35:20;;;;;;;17.10;8.70;;;15.40;99.90;;;;;;5093554;28;20024;-76
2023/05/28 01:37:53;;;;;;;16.20;8.63;;;15.40;99.90;;;;;;5075220;28;20024;-78
2023/05/28 01:40:20;;;;;;;;;;;15.40;99.90;;;;;;5054931;28;20495;-74
2023/05/28 01:42:47;;;;;;;16.05;9.02;;;15.40;99.90;;;;;;5053179;28;19915;-77
2023/05/28 01:45:14;;;;;;;19.10;9.88;;;15.30;99.90;;;;;;5052617;28;20041;-78
2023/05/28 01:47:41;;;;;;;15.88;9.70;;;15.30;99.90;;;;;;5054566;28;20052;-77
2023/05/28 01:50:07;;;;;;;16.52;9.13;;;15.40;99.90;;;;;;5054642;28;20017;-76
2023/05/28 01:52:33;;;;;;;14.52;8.43;;;15.40;99.90;;;;;;5054271;28;20138;-76
2023/05/28 01:54:58;;;;;;;18.67;9.10;;;15.30;99.90;;;;;;5054462;28;20478;-77
2023/05/28 01:57:24;;;;;;;14.05;9.20;;;15.30;99.90;;;;;;5053906;28;20029;-77
2023/05/28 01:59:50;;;;;;;13.43;8.68;;;15.20;99.90;;;;;;5053947;28;20462;-76
2023/05/28 02:02:16;;;;;;;15.73;9.07;;;15.10;99.90;;;;;;5054134;28;20025;-77
2023/05/28 02:04:41;;;;;;;15.95;9.57;;;15.00;99.90;;;;;;5059160;28;20060;-77
2023/05/28 02:07:07;;;;;;;19.27;10.23;;;15.10;99.90;;;;;;5070287;28;20108;-77
2023/05/28 02:09:33;;;;;;;15.23;8.27;;;15.00;99.90;;;;;;5054188;28;20372;-77
2023/05/28 02:12:02;;;;;;;14.43;8.40;;;15.00;99.90;;;;;;5053958;28;20025;-77
2023/05/28 02:14:28;;;;;;;20.23;9.95;;;15.00;99.90;;;;;;5053390;28;20408;-77
2023/05/28 02:16:54;;;;;;;18.30;9.68;;;15.00;99.90;;;;;;5053720;28;20412;-76
2023/05/28 02:19:20;;;;;;;15.68;9.25;;;15.00;99.90;;;;;;5053936;28;20025;-76
2023/05/28 02:21:46;;;;;;;18.40;9.32;;;15.00;99.90;;;;;;5053613;28;20021;-76
2023/05/28 02:24:12;;;;;;;15.45;9.48;;;15.00;99.90;;;;;;5053887;28;20025;-76
2023/05/28 02:26:38;;;;;;;15.57;9.13;;;14.90;99.90;;;;;;5053850;28;20036;-76
2023/05/28 02:29:03;;;;;;;17.88;9.70;;;14.90;99.90;;;;;;5053149;28;20092;-75
2023/05/28 02:31:29;;;;;;;17.92;9.55;;;14.90;99.90;;;;;;5053558;28;20021;-76
2023/05/28 02:33:55;;;;;;;19.60;10.07;;;14.90;99.90;;;;;;5034356;28;20037;-76
2023/05/28 02:36:21;;;;;;;17.88;10.23;;;14.80;99.90;;;;;;5058726;28;20115;-76
2023/05/28 02:38:46;;;;;;;18.98;10.27;;;14.80;99.90;;;;;;5058487;28;20032;-76
2023/05/28 02:41:12;;;;;;;17.65;9.65;;;14.80;99.90;;;;;;5052167;28;20469;-77
2023/05/28 02:43:38;;;;;;;20.40;10.52;;;14.80;99.90;;;;;;5053377;28;20029;-77
2023/05/28 02:46:04;;;;;;;20.38;10.80;;;14.70;99.90;;;;;;5052825;28;20032;-76
2023/05/28 02:48:30;;;;;;;19.45;10.82;;;14.70;99.90;;;;;;5053493;28;20079;-76
2023/05/28 02:50:56;;;;;;;22.42;11.30;;;14.70;99.90;;;;;;5061881;28;20021;-77
2023/05/28 02:53:22;;;;;;;20.08;11.23;;;14.70;99.90;;;;;;5071891;28;20404;-76
2023/05/28 02:55:49;;;;;;;16.58;10.63;;;14.60;99.90;;;;;;5071536;28;20105;-76
2023/05/28 02:58:15;;;;;;;20.17;10.38;;;14.60;99.90;;;;;;5071968;28;20468;-76
2023/05/28 03:00:41;;;;;;;21.60;11.18;;;14.50;99.90;;;;;;5073221;28;20032;-76
2023/05/28 03:03:08;;;;;;;17.77;10.30;;;14.50;99.90;;;;;;5073025;28;20033;-76
2023/05/28 03:05:34;;;;;;;18.27;10.52;;;14.50;99.90;;;;;;5054435;28;20043;-76
2023/05/28 03:08:00;;;;;;;18.45;9.95;;;14.50;99.90;;;;;;5052575;28;20094;-76
2023/05/28 03:10:26;;;;;;;18.83;9.65;;;14.50;99.90;;;;;;5052385;28;20059;-76
2023/05/28 03:12:51;;;;;;;18.38;10.98;;;14.50;99.90;;;;;;5052495;28;20059;-76
2023/05/28 03:15:17;;;;;;;21.83;10.80;;;14.40;99.90;;;;;;5050743;28;20037;-76
2023/05/28 03:17:43;;;;;;;18.05;10.95;;;14.40;99.90;;;;;;5035074;28;20025;-76
2023/05/28 03:20:10;;;;;;;19.92;10.85;;;14.40;99.90;;;;;;5052988;28;20044;-76
2023/05/28 03:22:36;;;;;;;19.65;10.85;;;14.40;99.90;;;;;;5034275;28;20436;-76
2023/05/28 03:25:08;;;;;;;23.17;10.75;;;14.30;99.90;;;;;;5052653;28;20465;-76
2023/05/28 03:27:34;;;;;;;18.08;9.95;;;14.30;99.90;;;;;;5068379;28;20024;-76
2023/05/28 03:29:59;;;;;;;21.00;11.65;;;14.30;99.90;;;;;;5072866;28;20044;-76
2023/05/28 03:32:25;;;;;;;19.73;11.20;;;14.20;99.90;;;;;;5072350;28;20112;-76
2023/05/28 03:34:51;;;;;;;19.30;10.95;;;14.20;99.90;;;;;;5071679;28;20469;-76
2023/05/28 03:37:16;;;;;;;16.48;10.30;;;14.20;99.90;;;;;;5070825;28;20065;-76
2023/05/28 03:39:43;;;;;;;16.30;11.00;;;14.20;99.90;;;;;;5072616;28;20054;-76
2023/05/28 03:42:09;;;;;;;20.52;10.70;;;14.20;99.90;;;;;;5072448;28;20029;-76
2023/05/28 03:44:35;;;;;;;22.52;12.70;;;14.20;99.90;;;;;;5072317;28;20089;-76
2023/05/28 03:47:00;;;;;;;18.67;11.93;;;14.20;99.90;;;;;;5054585;28;20031;-76
2023/05/28 03:49:26;;;;;;;20.30;11.48;;;14.10;99.90;;;;;;5052727;28;20048;-76
2023/05/28 03:51:52;;;;;;;20.27;11.73;;;14.10;99.90;;;;;;5052541;28;20028;-76
2023/05/28 03:54:18;;;;;;;28.05;12.93;;;14.10;99.90;;;;;;5052198;28;20029;-76
2023/05/28 03:56:44;;;;;;;25.70;13.73;;;14.10;99.90;;;;;;5052249;28;20485;-76
2023/05/28 03:59:10;;;;;;;23.08;13.88;;;14.00;99.90;;;;;;5052124;28;20021;-76
2023/05/28 04:01:36;;;;;;;27.45;13.45;;;14.10;99.90;;;;;;5052474;28;20454;-76
2023/05/28 04:04:03;;;;;;;20.27;11.50;;;14.00;99.90;;;;;;5071998;28;20074;-76
2023/05/28 04:06:28;;;;;;;24.10;13.10;;;14.00;99.90;;;;;;5073282;28;20465;-76
2023/05/28 04:08:55;;;;;;;22.10;12.65;;;14.00;99.90;;;;;;5064792;28;20032;-76
2023/05/28 04:11:24;;;;;;;20.38;11.73;;;14.00;99.90;;;;;;5056080;28;20023;-76
2023/05/28 04:13:50;;;;;;;21.55;12.70;;;14.00;99.90;;;;;;5056168;28;20071;-76
2023/05/28 04:16:16;;;;;;;23.40;12.80;;;13.90;99.90;;;;;;5056507;28;20028;-76
2023/05/28 04:18:42;;;;;;;27.48;12.95;;;14.00;99.90;;;;;;5058531;28;20029;-76
2023/05/28 04:21:08;;;;;;;26.77;12.75;;;13.90;99.90;;;;;;5056017;28;20104;-76
2023/05/28 04:23:33;;;;;;;22.90;14.10;;;13.90;99.90;;;;;;5056148;28;20031;-77
2023/05/28 04:25:59;;;;;;;25.25;13.00;;;13.90;99.90;;;;;;5054649;28;20460;-76
2023/05/28 04:28:27;;;;;;;22.38;12.32;;;13.90;99.90;;;;;;5055894;28;20465;-76
2023/05/28 04:30:54;;;;;;;21.70;12.02;;;13.90;99.90;;;;;;5055964;28;20021;-76
2023/05/28 04:33:20;;;;;;;25.77;12.88;;;13.90;99.90;;;;;;5075709;28;20032;-76
2023/05/28 04:35:47;;;;;;;21.73;12.57;;;13.90;99.90;;;;;;5062609;28;20021;-77
2023/05/28 04:38:12;;;;;;;24.25;12.40;;;13.90;99.90;;;;;;5075955;28;20111;-76
2023/05/28 04:40:39;;;;;;;23.60;13.10;;;13.90;99.90;;;;;;5075341;28;20159;-76
2023/05/28 04:43:05;;;;;;;22.05;12.10;;;13.90;99.90;;;;;;5075717;28;20035;-76
2023/05/28 04:45:32;;;;;;;23.08;13.30;;;13.90;99.90;;;;;;5055530;28;20029;-76
2023/05/28 04:47:58;;;;;;;22.85;13.32;;;13.90;99.90;;;;;;5055425;28;20104;-76
2023/05/28 04:50:24;;;;;;;23.88;13.82;;;13.90;99.90;;;;;;5037466;28;20613;-76
2023/05/28 04:52:50;;;;;;;21.90;13.27;;;13.90;99.90;;;;;;5055512;28;20116;-76
2023/05/28 04:55:16;;;;;;;23.63;12.65;;;14.00;99.90;;;;;;5054209;28;20028;-76
2023/05/28 04:57:42;;;;;;;22.60;13.38;;;14.00;99.90;;;;;;5055503;28;20028;-76
2023/05/28 05:00:12;;;;;;;20.48;13.60;;;14.10;99.90;;;;;;5055281;28;20545;-76
2023/05/28 05:02:39;;;;;;;25.15;14.32;;;14.10;99.90;;;;;;5054612;28;20024;-76
2023/05/28 05:05:05;;;;;;;21.75;13.23;;;14.20;99.90;;;;;;5054932;28;20029;-77
2023/05/28 05:07:32;;;;;;;24.00;14.23;;;14.20;99.90;;;;;;5055111;28;20017;-77
2023/05/28 05:09:57;;;;;;;24.70;14.20;;;14.30;99.90;;;;;;5055134;28;20478;-76
2023/05/28 05:12:23;;;;;;;28.80;13.50;;;14.30;99.90;;;;;;5065391;28;20043;-76
2023/05/28 05:14:49;;;;;;;20.90;12.70;;;14.30;99.90;;;;;;5074954;28;20131;-76
2023/05/28 05:17:14;;;;;;;26.88;13.35;;;14.30;99.90;;;;;;5074582;28;20025;-76
2023/05/28 05:19:40;;;;;;;20.60;12.82;;;14.40;99.90;;;;;;5075232;28;20024;-76
2023/05/28 05:22:06;;;;;;;21.92;12.43;;;14.40;99.90;;;;;;5074331;28;20020;-76
2023/05/28 05:24:32;;;;;;;21.27;13.80;;;14.40;99.90;;;;;;5074376;28;20020;-76
2023/05/28 05:26:58;;;;;;;21.52;13.18;;;14.40;99.90;;;;;;5074091;28;20040;-76
2023/05/28 05:29:23;;;;;;;25.17;12.32;;;14.50;99.90;;;;;;5074917;28;20016;-76
2023/05/28 05:31:49;;;;;;;29.77;13.30;;;14.50;99.90;;;;;;5074444;28;20393;-76
2023/05/28 05:34:15;;;;;;;26.65;13.63;;;14.50;99.90;;;;;;5060584;28;20029;-76
2023/05/28 05:36:41;;;;;;;23.48;12.60;;;14.60;99.90;;;;;;5064441;28;20021;-76
2023/05/28 05:39:08;;;;;;;20.67;12.82;;;14.60;99.90;;;;;;5074897;28;20544;-76
2023/05/28 05:41:33;;;;;;;23.80;12.73;;;14.50;99.90;;;;;;5073979;28;20031;-76
2023/05/28 05:43:59;;;;;;;21.17;12.65;;;14.60;99.90;;;;;;5075196;28;20016;-76
2023/05/28 05:46:25;;;;;;;22.63;12.55;;;14.50;99.90;;;;;;5071418;28;20465;-75
2023/05/28 05:48:51;;;;;;;27.70;13.40;;;14.60;99.90;;;;;;5054864;28;20090;-76
2023/05/28 05:51:18;;;;;;;18.98;12.38;;;14.70;99.90;;;;;;5054236;28;20021;-76
2023/05/28 05:53:44;;;;;;;23.92;13.20;;;14.70;99.90;;;;;;5054584;28;20033;-76
2023/05/28 05:56:10;;;;;;;26.17;13.85;;;14.80;99.90;;;;;;5054374;28;20444;-76
2023/05/28 05:58:37;;;;;;;25.85;12.68;;;14.80;99.90;;;;;;5061094;28;20100;-76
2023/05/28 06:01:03;;;;;;;24.23;12.60;;;14.80;99.90;;;;;;5073574;28;20048;-75
2023/05/28 06:03:30;;;;;;;19.80;11.98;;;14.80;99.90;;;;;;5073210;28;20016;-76
2023/05/28 06:05:56;;;;;;;23.15;12.65;;;14.80;99.90;;;;;;5068700;28;20017;-76
2023/05/28 06:08:22;;;;;;;25.83;13.57;;;14.90;99.90;;;;;;5073082;28;20024;-76
2023/05/28 06:10:48;;;;;;;23.50;12.32;;;15.00;99.90;;;;;;5073581;28;20033;-76
2023/05/28 06:13:14;;;;;;;20.65;12.00;;;15.00;99.90;;;;;;5055877;28;20078;-76
2023/05/28 06:15:41;;;;;;;28.90;12.18;;;15.00;99.90;;;;;;5054117;28;20029;-76
2023/05/28 06:18:06;;;;;;;20.25;11.70;;;15.10;99.90;;;;;;5072035;28;20020;-76
2023/05/28 06:20:33;;;;;;;22.02;13.00;;;15.10;99.90;;;;;;5053814;28;20071;-76
2023/05/28 06:22:58;;;;;;;25.38;12.60;;;15.10;99.90;;;;;;5055615;28;20032;-76
2023/05/28 06:25:25;;;;;;;23.60;12.20;;;15.30;99.90;;;;;;5053583;28;20025;-76
2023/05/28 06:27:51;;;;;;;25.55;12.55;;;15.30;99.90;;;;;;5053625;28;20409;-76
2023/05/28 06:30:17;;;;;;;21.40;12.02;;;15.40;99.90;;;;;;5053086;28;20039;-76
2023/05/28 06:32:43;;;;;;;18.95;11.20;;;15.50;99.90;;;;;;5053390;28;20043;-77
2023/05/28 06:35:08;;;;;;;25.30;11.98;;;15.50;99.90;;;;;;5059929;28;20507;-76
2023/05/28 06:37:34;;;;;;;19.38;11.75;;;15.60;99.90;;;;;;5073633;28;20035;-76
2023/05/28 06:40:00;;;;;;;19.42;10.25;;;15.70;99.90;;;;;;5044350;28;20058;-76
2023/05/28 06:42:25;;;;;;;20.85;11.40;;;15.70;99.90;;;;;;5054846;28;20025;-76
2023/05/28 06:44:51;;;;;;;20.52;10.68;;;15.80;99.90;;;;;;5067252;28;20060;-77
2023/05/28 06:47:17;;;;;;;26.15;11.88;;;15.90;99.90;;;;;;5041796;28;20228;-77
2023/05/28 06:49:43;;;;;;;22.48;11.25;;;16.10;99.90;;;;;;5052605;28;20063;-77
2023/05/28 06:52:08;;;;;;;20.40;10.90;;;16.20;99.90;;;;;;5053302;28;20025;-77
2023/05/28 06:54:34;;;;;;;19.90;11.15;;;16.40;99.90;;;;;;5053034;28;20048;-76
2023/05/28 06:57:00;;;;;;;21.23;10.52;;;16.60;99.90;;;;;;5052548;28;20048;-76
2023/05/28 06:59:25;;;;;;;24.90;11.68;;;16.70;99.90;;;;;;5055409;28;20488;-77
2023/05/28 07:01:51;;;;;;;21.58;10.98;;;16.70;99.90;;;;;;5055255;28;20486;-77
2023/05/28 07:04:17;;;;;;;26.15;11.25;;;16.90;99.90;;;;;;5072821;28;20031;-77
2023/05/28 07:06:42;;;;;;;21.35;11.50;;;17.10;99.90;;;;;;5073029;28;20112;-77
2023/05/28 07:09:09;;;;;;;23.13;10.85;;;17.10;99.90;;;;;;5054159;28;20745;-77
2023/05/28 07:11:35;;;;;;;23.58;10.52;;;17.30;99.90;;;;;;5053684;28;20020;-78
2023/05/28 07:14:01;;;;;;;23.90;11.98;;;17.50;99.90;;;;;;5072464;28;20051;-77
2023/05/28 07:16:27;;;;;;;19.48;11.45;;;17.60;99.90;;;;;;5069054;28;20025;-77
2023/05/28 07:18:52;;;;;;;19.98;10.77;;;17.60;99.90;;;;;;5062033;28;20492;-77
2023/05/28 07:21:24;;;;;;;18.77;9.77;;;17.60;99.90;;;;;;5062596;28;20469;-77
2023/05/28 07:23:50;;;;;;;22.13;11.18;;;17.60;99.90;;;;;;5066256;28;20031;-77
2023/05/28 07:26:15;;;;;;;18.00;9.75;;;17.80;99.90;;;;;;5072505;28;20020;-78
2023/05/28 07:28:41;;;;;;;18.38;9.80;;;18.10;99.90;;;;;;5063217;28;20025;-77
2023/05/28 07:31:07;;;;;;;22.65;9.73;;;18.30;99.90;;;;;;5042118;28;20021;-79
2023/05/28 07:33:32;;;;;;;20.20;9.10;;;18.30;99.90;;;;;;5062807;28;20396;-78
2023/05/28 07:35:58;;;;;;;21.02;10.07;;;18.50;99.90;;;;;;5063065;28;20376;-78
2023/05/28 07:38:23;;;;;;;15.68;8.88;;;18.50;99.90;;;;;;5063109;28;20528;-76
2023/05/28 07:40:50;;;;;;;16.65;8.80;;;18.70;99.90;;;;;;5060840;28;20025;-77
2023/05/28 07:43:15;;;;;;;18.38;9.00;;;18.80;99.90;;;;;;5062061;28;20105;-77
2023/05/28 07:45:41;;;;;;;14.00;8.73;;;18.90;99.90;;;;;;5063183;28;20060;-79
2023/05/28 07:48:07;;;;;;;21.33;9.23;;;19.00;99.90;;;;;;5059804;28;20071;-77
2023/05/28 07:50:33;;;;;;;16.67;8.68;;;19.10;99.90;;;;;;5051288;28;20025;-76
2023/05/28 07:53:01;;;;;;;19.65;8.52;;;19.30;99.90;;;;;;5051828;28;20506;-77
2023/05/28 07:55:27;;;;;;;23.58;8.70;;;19.50;99.90;;;;;;5059552;28;20067;-77
2023/05/28 07:57:53;;;;;;;18.95;7.68;;;19.70;99.90;;;;;;5066382;28;20048;-77
2023/05/28 08:00:19;;;;;;;18.27;8.63;;;19.80;99.90;;;;;;5071644;28;20052;-78
2023/05/28 08:02:44;;;;;;;19.20;8.48;;;19.90;99.90;;;;;;5060258;28;20082;-78
2023/05/28 08:05:11;;;;;;;13.35;7.90;;;19.90;99.90;;;;;;5057134;28;20546;-77
2023/05/28 08:07:37;;;;;;;16.42;8.75;;;19.90;99.90;;;;;;5058989;28;20449;-76
2023/05/28 08:10:04;;;;;;;14.13;7.80;;;20.00;99.90;;;;;;5060858;28;20061;-77
2023/05/28 08:12:30;;;;;;;14.35;8.55;;;20.30;99.90;;;;;;5056092;28;20024;-76
2023/05/28 08:14:55;;;;;;;15.25;7.95;;;20.40;99.90;;;;;;5058291;28;20045;-77
2023/05/28 08:17:22;;;;;;;13.10;7.90;;;20.40;99.90;;;;;;5053292;28;20032;-76
2023/05/28 08:19:49;;;;;;;16.80;8.88;;;20.60;99.90;;;;;;5060398;28;20029;-78
2023/05/28 08:22:15;;;;;;;17.13;7.05;;;20.80;99.90;;;;;;5057251;28;20021;-77
2023/05/28 08:24:41;;;;;;;19.27;8.20;;;21.00;99.90;;;;;;5056588;28;20507;-77
2023/05/28 08:27:07;;;;;;;15.75;8.27;;;20.90;99.90;;;;;;5058783;28;20068;-77
2023/05/28 08:29:32;;;;;;;15.05;7.00;;;21.10;99.90;;;;;;5055693;28;20496;-76
2023/05/28 08:31:59;;;;;;;11.60;7.05;;;21.20;99.90;;;;;;5063774;28;20021;-77
2023/05/28 08:34:25;;;;;;;15.45;7.38;;;21.30;99.90;;;;;;5058515;28;20025;-78
2023/05/28 08:36:51;;;;;;;14.68;7.03;;;21.40;99.90;;;;;;5041485;28;20429;-75
2023/05/28 08:39:17;;;;;;;14.60;8.38;;;21.60;99.90;;;;;;5063494;28;20029;-78
2023/05/28 08:41:43;;;;;;;17.17;8.27;;;21.80;99.90;;;;;;5058138;28;20496;-78
2023/05/28 08:44:09;;;;;;;12.80;7.45;;;21.90;99.90;;;;;;5050431;28;20555;-76
2023/05/28 08:46:36;;;;;;;13.63;6.75;;;22.10;99.90;;;;;;5051989;28;20048;-75
2023/05/28 08:49:03;;;;;;;14.55;7.15;;;22.30;99.90;;;;;;5033997;28;20040;-77
2023/05/28 08:51:32;;;;;;;15.23;7.28;;;22.20;99.90;;;;;;5051810;28;20021;-76
2023/05/28 08:54:00;;;;;;;15.07;6.00;;;22.30;99.90;;;;;;5055411;28;20037;-76
2023/05/28 08:56:26;;;;;;;13.48;6.22;;;22.30;99.90;;;;;;5055618;28;20023;-80
2023/05/28 08:58:52;;;;;;;15.00;5.97;;;22.50;99.90;;;;;;5053921;28;20025;-80
2023/05/28 09:01:19;;;;;;;10.35;5.93;;;22.60;99.90;;;;;;5054698;28;20474;-76
2023/05/28 09:03:45;;;;;;;12.45;5.90;;;22.50;99.90;;;;;;5063640;28;20060;-75
2023/05/28 09:06:12;;;;;;;19.38;6.68;;;22.60;99.90;;;;;;5074246;28;20025;-78
2023/05/28 09:08:38;;;;;;;11.95;6.45;;;22.70;99.90;;;;;;5057708;28;20017;-77
2023/05/28 09:11:11;;;;;;;17.13;6.20;;;22.90;99.90;;;;;;5054741;28;20025;-78
2023/05/28 09:13:47;;;;;;;12.88;6.18;;;23.10;99.90;;;;;;5055314;28;20043;-78
2023/05/28 09:16:23;;;;;;;14.38;6.45;;;23.20;99.90;;;;;;5054874;28;20025;-78
2023/05/28 09:19:02;;;;;;;15.18;5.68;;;23.30;99.90;;;;;;5055205;28;20059;-78
2023/05/28 09:21:28;;;;;;;13.07;4.75;;;23.50;99.90;;;;;;5054586;28;20021;-79
2023/05/28 09:23:54;;;;;;;12.65;5.55;;;23.60;99.90;;;;;;5055135;28;20517;-78
2023/05/28 09:26:20;;;;;;;11.93;4.80;;;23.70;99.90;;;;;;5037249;28;20060;-78
2023/05/28 09:28:46;;;;;;;11.77;5.75;;;23.90;99.90;;;;;;5036845;28;20025;-78
2023/05/28 09:31:12;;;;;;;16.33;5.07;;;23.90;99.90;;;;;;5054361;28;20151;-79
2023/05/28 09:33:56;;;;;;;11.57;4.75;;;23.80;99.90;;;;;;5054985;28;20037;-79
2023/05/28 09:36:21;;;;;;;10.35;5.22;;;23.80;99.90;;;;;;5072846;28;20029;-78
2023/05/28 09:38:47;;;;;;;10.32;5.03;;;24.10;99.90;;;;;;5074639;28;20121;-76
2023/05/28 09:41:20;;;;;;;13.18;5.32;;;24.30;99.90;;;;;;5074683;28;20055;-78
2023/05/28 09:43:58;;;;;;;14.95;5.10;;;24.30;99.90;;;;;;5073848;28;20033;-78
2023/05/28 09:46:34;;;;;;;13.55;4.65;;;24.40;99.90;;;;;;5074737;28;20099;-78
2023/05/28 09:49:01;;;;;;;12.55;4.95;;;24.60;99.90;;;;;;5056835;28;20111;-79
2023/05/28 09:51:30;;;;;;;11.52;4.55;;;24.70;99.90;;;;;;5074277;28;20409;-78
2023/05/28 09:54:01;;;;;;;9.15;4.57;;;24.80;99.90;;;;;;5074452;28;20039;-77
2023/05/28 09:56:32;;;;;;;13.40;5.78;;;24.90;99.90;;;;;;5056079;28;20475;-78
2023/05/28 09:59:03;;;;;;;10.48;5.32;;;24.80;99.90;;;;;;5074003;28;20059;-78
2023/05/28 10:01:47;;;;;;;10.02;4.90;;;24.80;99.90;;;;;;5074335;28;20017;-78
2023/05/28 10:04:17;;;;;;;10.50;5.43;;;24.90;99.90;;;;;;5072560;28;20061;-78
2023/05/28 10:06:44;;;;;;;10.30;5.10;;;25.20;99.90;;;;;;5060653;28;20029;-79
2023/05/28 10:09:14;;;;;;;11.05;5.30;;;25.30;99.50;;;;;;5058771;28;20029;-80
2023/05/28 10:11:50;;;;;;;10.25;4.97;;;25.30;99.90;;;;;;5055695;28;20032;-79
2023/05/28 10:14:16;;;;;;;9.00;4.60;;;25.30;99.90;;;;;;5054907;28;20110;-80
2023/05/28 10:16:42;;;;;;;9.57;4.32;;;25.60;99.90;;;;;;5046893;28;20039;-79
2023/05/28 10:19:09;;;;;;;7.90;4.45;;;25.60;99.20;;;;;;5059403;28;20056;-79
2023/05/28 10:21:36;;;;;;;10.82;4.95;;;25.50;98.40;;;;;;5061339;28;20472;-79
2023/05/28 10:24:03;;;;;;;8.40;4.45;;;25.50;96.70;;;;;;5057440;28;20033;-79
2023/05/28 10:26:29;;;;;;;7.93;4.20;;;25.60;98.10;;;;;;5060098;28;20023;-79
2023/05/28 10:28:55;;;;;;;10.05;4.80;;;25.80;97.70;;;;;;5063890;28;20350;-80
2023/05/28 10:31:22;;;;;;;7.45;4.45;;;26.00;98.10;;;;;;5058487;28;20025;-78
2023/05/28 10:33:48;;;;;;;9.50;5.40;;;25.90;97.50;;;;;;5056347;28;20068;-77
2023/05/28 10:36:15;;;;;;;9.50;5.03;;;25.90;97.20;;;;;;5044850;28;20056;-78
2023/05/28 10:39:03;;;;;;;7.03;4.63;;;25.90;97.70;;;;;;5055823;28;20029;-78
2023/05/28 10:41:33;;;;;;;9.30;4.53;;;25.90;97.10;;;;;;5054951;28;20013;-78
2023/05/28 10:44:07;;;;;;;7.43;4.65;;;26.00;97.80;;;;;;5059106;28;20051;-79
2023/05/28 10:46:37;;;;;;;10.38;4.85;;;26.20;96.10;;;;;;5057634;28;20029;-78
2023/05/28 10:49:12;;;;;;;9.07;5.10;;;26.30;96.40;;;;;;5055912;28;20032;-78
2023/05/28 10:52:01;;;;;;;11.57;5.22;;;26.40;97.30;;;;;;5058547;28;20060;-79
2023/05/28 10:54:30;;;;;;;7.72;4.82;;;26.50;98.50;;;;;;5060614;28;20508;-79
2023/05/28 10:57:15;;;;;;;8.98;4.90;;;26.50;97.50;;;;;;5046391;28;20067;-79
2023/05/28 10:59:47;;;;;;;11.32;5.00;;;26.60;96.90;;;;;;5058103;28;20032;-78
2023/05/28 11:02:17;;;;;;;11.00;5.10;;;26.60;96.20;;;;;;5058650;28;20082;-77
2023/05/28 11:04:42;;;;;;;10.93;5.18;;;26.60;95.50;;;;;;5054945;28;20025;-77
2023/05/28 11:07:08;;;;;;;11.10;4.82;;;26.60;96.00;;;;;;5051481;28;20013;-76
2023/05/28 11:09:34;;;;;;;9.27;5.13;;;26.60;95.10;;;;;;5062519;28;20465;-77
2023/05/28 11:12:05;;;;;;;8.43;4.82;;;26.50;95.40;;;;;;5057549;28;20020;-76
2023/05/28 11:14:35;;;;;;;11.95;5.30;;;26.60;96.40;;;;;;5045656;28;20817;-77
2023/05/28 11:17:05;;;;;;;12.88;5.10;;;26.70;97.50;;;;;;5064058;28;20537;-76
2023/05/28 11:19:30;;;;;;;9.57;5.05;;;26.80;95.30;;;;;;5070899;28;20025;-76
2023/05/28 11:21:56;;;;;;;11.57;5.75;;;27.00;95.10;;;;;;5052529;28;20075;-77
2023/05/28 11:24:22;;;;;;;12.02;5.65;;;27.00;95.20;;;;;;5058040;28;20043;-81
2023/05/28 11:26:48;;;;;;;9.05;4.93;;;26.90;96.10;;;;;;5063265;28;20103;-77
2023/05/28 11:29:15;;;;;;;8.85;4.70;;;26.90;94.40;;;;;;5054215;28;20071;-77
2023/05/28 11:31:41;;;;;;;8.73;5.18;;;26.80;95.20;;;;;;5060999;28;20504;-77
2023/05/28 11:34:08;;;;;;;9.90;5.13;;;26.80;95.80;;;;;;5061121;28;20032;-77
2023/05/28 11:36:43;;;;;;;11.00;5.65;;;26.80;95.50;;;;;;5060678;28;20024;-78
2023/05/28 11:39:10;;;;;;;10.30;5.18;;;26.60;95.60;;;;;;5061441;28;20112;-81
2023/05/28 11:41:37;;;;;;;10.95;5.03;;;26.70;95.50;;;;;;5060899;28;20017;-80
2023/05/28 11:44:02;;;;;;;10.32;4.90;;;26.60;96.80;;;;;;5060033;28;20051;-77
2023/05/28 11:46:28;;;;;;;8.93;5.20;;;26.40;95.30;;;;;;5061421;28;20033;-77
2023/05/28 11:48:54;;;;;;;15.98;5.65;;;26.30;95.60;;;;;;5061037;28;20103;-77
2023/05/28 11:51:20;;;;;;;11.13;4.75;;;26.60;95.30;;;;;;5060741;28;20040;-76
2023/05/28 11:53:46;;;;;;;11.07;5.45;;;26.50;95.20;;;;;;5061173;28;20062;-78
2023/05/28 11:56:13;;;;;;;9.82;4.65;;;26.60;95.40;;;;;;5062093;28;20032;-77
2023/05/28 11:58:44;;;;;;;8.73;4.80;;;26.40;95.50;;;;;;5054150;28;20500;-79
2023/05/28 12:01:17;;;;;;;10.48;5.00;;;26.50;96.80;;;;;;5082586;28;20350;-79
2023/05/28 12:03:42;;;;;;;11.20;4.82;;;26.60;95.00;;;;;;5054043;28;20039;-79
2023/05/28 12:06:08;;;;;;;7.00;4.90;;;26.70;94.20;;;;;;5045158;28;20021;-79
2023/05/28 12:08:34;;;;;;;9.23;4.53;;;26.60;95.30;;;;;;5044322;28;20046;-78
2023/05/28 12:11:02;;;;;;;12.82;4.70;;;26.60;94.60;;;;;;5061189;28;20028;-79
2023/05/28 12:13:34;;;;;;;11.32;5.07;;;26.50;93.80;;;;;;5054485;28;20106;-78
2023/05/28 12:16:12;;;;;;;9.63;4.80;;;26.70;93.90;;;;;;5056552;28;20033;-77
2023/05/28 12:18:44;;;;;;;8.30;4.90;;;26.70;94.80;;;;;;5056958;28;20029;-78
2023/05/28 12:21:18;;;;;;;11.60;5.07;;;26.70;95.20;;;;;;5052517;28;20032;-78
2023/05/28 12:23:44;;;;;;;7.43;4.32;;;27.10;94.40;;;;;;5059760;28;20024;-78
2023/05/28 12:26:13;;;;;;;10.13;5.40;;;27.20;95.50;;;;;;5066812;28;20021;-78
2023/05/28 12:28:40;;;;;;;7.97;4.60;;;27.30;93.80;;;;;;5054923;28;20033;-77
2023/05/28 12:31:07;;;;;;;8.75;4.85;;;27.40;93.40;;;;;;5055677;28;20107;-78
2023/05/28 12:33:33;;;;;;;7.85;4.63;;;27.60;92.70;;;;;;5055676;28;20044;-76
2023/05/28 12:35:59;;;;;;;6.28;3.92;;;27.70;92.90;;;;;;5070429;28;20512;-78